sensor_id;sensor_type;location;lat;lon;timestamp;pressure;altitude;pressure_sealevel;temperature;humidity
23303;BME280;11820;48.738;9.092;2023-05-13T00:00:26;96245.19;;;12.23;100.00
23303;BME280;11820;48.738;9.092;2023-05-13T00:02:52;96236.97;;;12.33;100.00
23303;BME280;11820;48.738;9.092;2023-05-13T00:05:18;96242.00;;;12.28;100.00
23303;BME280;11820;48.738;9.092;2023-05-13T00:07:43;96246.19;;;12.22;100.00
23303;BME280;11820;48.738;9.092;2023-05-13T00:10:08;96245.19;;;12.23;100.00
23303;BME280;11820;48.738;9.092;2023-05-13T00:12:34;96240.81;;;12.24;100.00
23303;BME280;11820;48.738;9.092;2023-05-13T00:14:59;96248.41;;;12.25;100.00
23303;BME280;11820;48.738;9.092;2023-05-13T00:17:24;96247.41;;;12.20;100.00
23303;BME280;11820;48.738;9.092;2023-05-13T00:19:50;96236.03;;;12.27;100.00
23303;BME280;11820;48.738;9.092;2023-05-13T00:22:15;96241.56;;;12.31;100.00
23303;BME280;11820;48.738;9.092;2023-05-13T00:24:40;96242.81;;;12.22;100.00
23303;BME280;11820;48.738;9.092;2023-05-13T00:27:06;96249.59;;;12.10;100.00
23303;BME280;11820;48.738;9.092;2023-05-13T00:29:31;96246.00;;;12.11;100.00
23303;BME280;11820;48.738;9.092;2023-05-13T00:31:56;96238.03;;;12.25;100.00
23303;BME280;11820;48.738;9.092;2023-05-13T00:34:21;96242.03;;;12.15;100.00
23303;BME280;11820;48.738;9.092;2023-05-13T00:36:48;96233.63;;;12.26;100.00
23303;BME280;11820;48.738;9.092;2023-05-13T00:39:13;96246.00;;;12.17;100.00
23303;BME280;11820;48.738;9.092;2023-05-13T00:41:38;96240.22;;;12.22;100.00
23303;BME280;11820;48.738;9.092;2023-05-13T00:44:04;96234.59;;;12.31;100.00
23303;BME280;11820;48.738;9.092;2023-05-13T00:46:30;96233.59;;;12.32;100.00
23303;BME280;11820;48.738;9.092;2023-05-13T00:48:58;96244.34;;;12.36;100.00
23303;BME280;11820;48.738;9.092;2023-05-13T00:51:23;96232.78;;;12.32;100.00
23303;BME280;11820;48.738;9.092;2023-05-13T00:53:49;96239.16;;;12.36;100.00
23303;BME280;11820;48.738;9.092;2023-05-13T00:56:20;96231.19;;;12.31;100.00
23303;BME280;11820;48.738;9.092;2023-05-13T00:58:46;96230.00;;;12.40;100.00
23303;BME280;11820;48.738;9.092;2023-05-13T01:09:43;96237.22;;;12.25;100.00
23303;BME280;11820;48.738;9.092;2023-05-13T01:12:19;96229.19;;;12.33;100.00
23303;BME280;11820;48.738;9.092;2023-05-13T01:14:54;96236.03;;;12.21;100.00
23303;BME280;11820;48.738;9.092;2023-05-13T01:17:28;96235.63;;;12.24;100.00
23303;BME280;11820;48.738;9.092;2023-05-13T01:19:57;96233.63;;;12.26;100.00
23303;BME280;11820;48.738;9.092;2023-05-13T01:22:22;96244.19;;;12.24;100.00
23303;BME280;11820;48.738;9.092;2023-05-13T01:24:47;96247.59;;;12.12;100.00
23303;BME280;11820;48.738;9.092;2023-05-13T01:27:14;96243.81;;;12.08;100.00
23303;BME280;11820;48.738;9.092;2023-05-13T01:29:40;96245.41;;;12.09;100.00
23303;BME280;11820;48.738;9.092;2023-05-13T01:32:06;96237.28;;;11.92;100.00
23303;BME280;11820;48.738;9.092;2023-05-13T01:34:33;96243.28;;;11.73;100.00
23303;BME280;11820;48.738;9.092;2023-05-13T01:36:59;96242.72;;;11.65;100.00
23303;BME280;11820;48.738;9.092;2023-05-13T01:39:25;96241.50;;;11.67;100.00
23303;BME280;11820;48.738;9.092;2023-05-13T01:41:50;96244.09;;;11.80;100.00
23303;BME280;11820;48.738;9.092;2023-05-13T01:44:16;96247.09;;;11.77;100.00
23303;BME280;11820;48.738;9.092;2023-05-13T01:46:45;96252.03;;;11.53;100.00
23303;BME280;11820;48.738;9.092;2023-05-13T01:49:11;96245.25;;;11.45;100.00
23303;BME280;11820;48.738;9.092;2023-05-13T01:51:36;96248.84;;;11.51;100.00
23303;BME280;11820;48.738;9.092;2023-05-13T01:54:03;96246.47;;;11.49;100.00
23303;BME280;11820;48.738;9.092;2023-05-13T01:56:28;96248.44;;;11.54;100.00
23303;BME280;11820;48.738;9.092;2023-05-13T01:58:54;96245.47;;;11.44;100.00
23303;BME280;11820;48.738;9.092;2023-05-13T02:01:19;96251.63;;;11.43;100.00
23303;BME280;11820;48.738;9.092;2023-05-13T02:03:44;96248.06;;;11.44;100.00
23303;BME280;11820;48.738;9.092;2023-05-13T02:06:09;96248.44;;;11.47;100.00
23303;BME280;11820;48.738;9.092;2023-05-13T02:08:35;96249.22;;;11.35;100.00
23303;BME280;11820;48.738;9.092;2023-05-13T02:11:00;96260.78;;;11.26;100.00
23303;BME280;11820;48.738;9.092;2023-05-13T02:13:25;96260.41;;;11.42;100.00
23303;BME280;11820;48.738;9.092;2023-05-13T02:15:52;96255.63;;;11.39;100.00
23303;BME280;11820;48.738;9.092;2023-05-13T02:18:17;96259.41;;;11.36;100.00
23303;BME280;11820;48.738;9.092;2023-05-13T02:20:43;96263.75;;;11.23;100.00
23303;BME280;11820;48.738;9.092;2023-05-13T02:23:08;96253.59;;;11.22;100.00
23303;BME280;11820;48.738;9.092;2023-05-13T02:25:34;96250.44;;;11.39;100.00
23303;BME280;11820;48.738;9.092;2023-05-13T02:27:59;96250.84;;;11.36;100.00
23303;BME280;11820;48.738;9.092;2023-05-13T02:30:25;96242.88;;;11.37;100.00
23303;BME280;11820;48.738;9.092;2023-05-13T02:32:52;96248.66;;;11.46;100.00
23303;BME280;11820;48.738;9.092;2023-05-13T02:35:17;96259.59;;;11.35;100.00
23303;BME280;11820;48.738;9.092;2023-05-13T02:37:43;96258.97;;;11.20;100.00
23303;BME280;11820;48.738;9.092;2023-05-13T02:40:08;96257.22;;;11.33;100.00
23303;BME280;11820;48.738;9.092;2023-05-13T02:42:34;96251.03;;;11.47;100.00
23303;BME280;11820;48.738;9.092;2023-05-13T02:44:59;96252.03;;;11.46;100.00
23303;BME280;11820;48.738;9.092;2023-05-13T02:47:25;96256.41;;;11.33;100.00
23303;BME280;11820;48.738;9.092;2023-05-13T02:49:50;96259.97;;;11.32;100.00
23303;BME280;11820;48.738;9.092;2023-05-13T02:52:15;96259.19;;;11.25;100.00
23303;BME280;11820;48.738;9.092;2023-05-13T02:54:40;96249.84;;;11.43;100.00
23303;BME280;11820;48.738;9.092;2023-05-13T02:57:06;96254.41;;;11.35;100.00
23303;BME280;11820;48.738;9.092;2023-05-13T02:59:31;96248.41;;;11.22;100.00
23303;BME280;11820;48.738;9.092;2023-05-13T03:01:56;96246.84;;;11.14;100.00
23303;BME280;11820;48.738;9.092;2023-05-13T03:04:22;96246.81;;;11.01;100.00
23303;BME280;11820;48.738;9.092;2023-05-13T03:06:49;96251.19;;;11.01;100.00
23303;BME280;11820;48.738;9.092;2023-05-13T03:09:14;96251.97;;;11.01;100.00
23303;BME280;11820;48.738;9.092;2023-05-13T03:11:40;96249.56;;;10.93;100.00
23303;BME280;11820;48.738;9.092;2023-05-13T03:14:05;96249.59;;;11.06;100.00
23303;BME280;11820;48.738;9.092;2023-05-13T03:16:30;96252.00;;;11.14;100.00
23303;BME280;11820;48.738;9.092;2023-05-13T03:18:56;96259.19;;;11.12;100.00
23303;BME280;11820;48.738;9.092;2023-05-13T03:21:21;96259.75;;;11.01;100.00
23303;BME280;11820;48.738;9.092;2023-05-13T03:23:46;96256.94;;;10.96;100.00
23303;BME280;11820;48.738;9.092;2023-05-13T03:26:12;96257.94;;;11.08;100.00
23303;BME280;11820;48.738;9.092;2023-05-13T03:28:37;96254.94;;;10.92;100.00
23303;BME280;11820;48.738;9.092;2023-05-13T03:31:02;96254.53;;;10.95;100.00
23303;BME280;11820;48.738;9.092;2023-05-13T03:33:27;96254.75;;;11.06;100.00
23303;BME280;11820;48.738;9.092;2023-05-13T03:35:53;96262.72;;;10.98;100.00
23303;BME280;11820;48.738;9.092;2023-05-13T03:38:19;96261.53;;;10.94;100.00
23303;BME280;11820;48.738;9.092;2023-05-13T03:40:44;96265.09;;;10.93;100.00
23303;BME280;11820;48.738;9.092;2023-05-13T03:43:09;96260.88;;;10.79;100.00
23303;BME280;11820;48.738;9.092;2023-05-13T03:45:35;96259.13;;;10.86;100.00
23303;BME280;11820;48.738;9.092;2023-05-13T03:48:00;96262.88;;;10.84;100.00
23303;BME280;11820;48.738;9.092;2023-05-13T03:50:25;96269.63;;;10.78;100.00
23303;BME280;11820;48.738;9.092;2023-05-13T03:52:51;96269.03;;;10.76;100.00
23303;BME280;11820;48.738;9.092;2023-05-13T03:55:16;96268.25;;;10.76;100.00
23303;BME280;11820;48.738;9.092;2023-05-13T03:57:46;96266.88;;;10.93;100.00
23303;BME280;11820;48.738;9.092;2023-05-13T04:00:12;96280.41;;;10.88;100.00
23303;BME280;11820;48.738;9.092;2023-05-13T04:02:37;96273.47;;;11.08;100.00
23303;BME280;11820;48.738;9.092;2023-05-13T04:05:03;96274.72;;;11.12;100.00
23303;BME280;11820;48.738;9.092;2023-05-13T04:07:30;96280.25;;;11.09;100.00
23303;BME280;11820;48.738;9.092;2023-05-13T04:09:55;96277.06;;;11.14;100.00
23303;BME280;11820;48.738;9.092;2023-05-13T04:12:20;96270.72;;;11.16;100.00
23303;BME280;11820;48.738;9.092;2023-05-13T04:14:45;96276.25;;;11.00;100.00
23303;BME280;11820;48.738;9.092;2023-05-13T04:17:11;96274.63;;;10.93;100.00
23303;BME280;11820;48.738;9.092;2023-05-13T04:19:36;96281.78;;;10.91;100.00
23303;BME280;11820;48.738;9.092;2023-05-13T04:22:01;96288.19;;;11.01;100.00
23303;BME280;11820;48.738;9.092;2023-05-13T04:24:26;96277.84;;;11.01;100.00
23303;BME280;11820;48.738;9.092;2023-05-13T04:26:52;96288.78;;;10.90;100.00
23303;BME280;11820;48.738;9.092;2023-05-13T04:29:17;96292.16;;;10.97;100.00
23303;BME280;11820;48.738;9.092;2023-05-13T04:31:43;96291.16;;;10.85;100.00
23303;BME280;11820;48.738;9.092;2023-05-13T04:34:08;96296.94;;;10.94;100.00
23303;BME280;11820;48.738;9.092;2023-05-13T04:36:34;96300.50;;;10.86;100.00
23303;BME280;11820;48.738;9.092;2023-05-13T04:38:59;96298.53;;;10.88;100.00
23303;BME280;11820;48.738;9.092;2023-05-13T04:41:24;96295.72;;;10.90;100.00
23303;BME280;11820;48.738;9.092;2023-05-13T04:43:50;96296.75;;;10.95;100.00
23303;BME280;11820;48.738;9.092;2023-05-13T04:46:15;96299.13;;;10.90;100.00
23303;BME280;11820;48.738;9.092;2023-05-13T04:48:40;96293.81;;;11.11;100.00
23303;BME280;11820;48.738;9.092;2023-05-13T04:51:06;96302.69;;;10.89;100.00
23303;BME280;11820;48.738;9.092;2023-05-13T04:53:32;96307.63;;;10.84;100.00
23303;BME280;11820;48.738;9.092;2023-05-13T04:55:57;96307.63;;;10.78;100.00
23303;BME280;11820;48.738;9.092;2023-05-13T04:58:25;96310.09;;;10.99;100.00
23303;BME280;11820;48.738;9.092;2023-05-13T05:00:51;96317.63;;;10.94;100.00
23303;BME280;11820;48.738;9.092;2023-05-13T05:03:16;96308.91;;;11.01;100.00
23303;BME280;11820;48.738;9.092;2023-05-13T05:05:42;96314.06;;;11.01;100.00
23303;BME280;11820;48.738;9.092;2023-05-13T05:08:07;96319.59;;;10.92;100.00
23303;BME280;11820;48.738;9.092;2023-05-13T05:10:33;96319.22;;;10.95;100.00
23303;BME280;11820;48.738;9.092;2023-05-13T05:12:58;96318.47;;;11.07;100.00
23303;BME280;11820;48.738;9.092;2023-05-13T05:15:24;96328.03;;;11.07;100.00
23303;BME280;11820;48.738;9.092;2023-05-13T05:17:49;96318.13;;;11.23;100.00
23303;BME280;11820;48.738;9.092;2023-05-13T05:20:15;96336.41;;;11.15;100.00
23303;BME280;11820;48.738;9.092;2023-05-13T05:22:40;96333.22;;;11.13;100.00
23303;BME280;11820;48.738;9.092;2023-05-13T05:25:07;96336.44;;;11.28;100.00
23303;BME280;11820;48.738;9.092;2023-05-13T05:27:33;96332.47;;;11.32;100.00
23303;BME280;11820;48.738;9.092;2023-05-13T05:29:58;96338.00;;;11.16;100.00
23303;BME280;11820;48.738;9.092;2023-05-13T05:32:23;96336.41;;;11.09;100.00
23303;BME280;11820;48.738;9.092;2023-05-13T05:34:49;96330.28;;;11.29;100.00
23303;BME280;11820;48.738;9.092;2023-05-13T05:37:14;96336.22;;;11.23;100.00
23303;BME280;11820;48.738;9.092;2023-05-13T05:39:39;96337.03;;;11.30;100.00
23303;BME280;11820;48.738;9.092;2023-05-13T05:42:06;96327.66;;;11.23;100.00
23303;BME280;11820;48.738;9.092;2023-05-13T05:44:31;96333.66;;;11.23;100.00
23303;BME280;11820;48.738;9.092;2023-05-13T05:46:57;96334.44;;;11.17;100.00
23303;BME280;11820;48.738;9.092;2023-05-13T05:49:22;96338.41;;;11.13;100.00
23303;BME280;11820;48.738;9.092;2023-05-13T05:51:47;96348.75;;;11.20;100.00
23303;BME280;11820;48.738;9.092;2023-05-13T05:54:13;96342.22;;;11.30;100.00
23303;BME280;11820;48.738;9.092;2023-05-13T05:56:38;96354.16;;;11.31;100.00
23303;BME280;11820;48.738;9.092;2023-05-13T05:59:03;96355.19;;;11.36;100.00
23303;BME280;11820;48.738;9.092;2023-05-13T06:01:29;96353.97;;;11.26;100.00
23303;BME280;11820;48.738;9.092;2023-05-13T06:04:00;96352.94;;;11.14;100.00
23303;BME280;11820;48.738;9.092;2023-05-13T06:06:26;96343.41;;;11.34;100.00
23303;BME280;11820;48.738;9.092;2023-05-13T06:08:51;96349.59;;;11.27;100.00
23303;BME280;11820;48.738;9.092;2023-05-13T06:11:16;96346.84;;;11.41;100.00
23303;BME280;11820;48.738;9.092;2023-05-13T06:13:41;96346.44;;;11.44;100.00
23303;BME280;11820;48.738;9.092;2023-05-13T06:16:08;96344.03;;;11.36;100.00
23303;BME280;11820;48.738;9.092;2023-05-13T06:18:33;96353.41;;;11.37;100.00
23303;BME280;11820;48.738;9.092;2023-05-13T06:20:58;96355.56;;;11.27;100.00
23303;BME280;11820;48.738;9.092;2023-05-13T06:23:23;96363.56;;;11.38;100.00
23303;BME280;11820;48.738;9.092;2023-05-13T06:25:49;96352.41;;;11.51;100.00
23303;BME280;11820;48.738;9.092;2023-05-13T06:28:14;96361.97;;;11.37;100.00
23303;BME280;11820;48.738;9.092;2023-05-13T06:30:39;96366.72;;;11.34;100.00
23303;BME280;11820;48.738;9.092;2023-05-13T06:33:05;96362.19;;;11.49;100.00
23303;BME280;11820;48.738;9.092;2023-05-13T06:35:32;96360.44;;;11.62;100.00
23303;BME280;11820;48.738;9.092;2023-05-13T06:37:57;96361.59;;;11.53;100.00
23303;BME280;11820;48.738;9.092;2023-05-13T06:40:23;96370.13;;;11.47;100.00
23303;BME280;11820;48.738;9.092;2023-05-13T06:42:48;96358.44;;;11.58;100.00
23303;BME280;11820;48.738;9.092;2023-05-13T06:45:13;96366.41;;;11.69;100.00
23303;BME280;11820;48.738;9.092;2023-05-13T06:47:39;96364.81;;;11.68;100.00
23303;BME280;11820;48.738;9.092;2023-05-13T06:50:04;96363.06;;;11.75;100.00
23303;BME280;11820;48.738;9.092;2023-05-13T06:52:30;96362.84;;;11.77;100.00
23303;BME280;11820;48.738;9.092;2023-05-13T06:54:56;96368.44;;;11.93;100.00
23303;BME280;11820;48.738;9.092;2023-05-13T06:57:21;96371.22;;;12.24;100.00
23303;BME280;11820;48.738;9.092;2023-05-13T06:59:47;96366.25;;;12.23;100.00
23303;BME280;11820;48.738;9.092;2023-05-13T07:02:12;96368.44;;;12.32;100.00
23303;BME280;11820;48.738;9.092;2023-05-13T07:04:37;96366.44;;;12.28;100.00
23303;BME280;11820;48.738;9.092;2023-05-13T07:07:03;96367.22;;;12.35;100.00
23303;BME280;11820;48.738;9.092;2023-05-13T07:09:29;96365.22;;;12.37;100.00
23303;BME280;11820;48.738;9.092;2023-05-13T07:11:54;96363.25;;;12.00;100.00
23303;BME280;11820;48.738;9.092;2023-05-13T07:14:19;96367.66;;;12.19;100.00
23303;BME280;11820;48.738;9.092;2023-05-13T07:16:45;96376.22;;;12.00;100.00
23303;BME280;11820;48.738;9.092;2023-05-13T07:19:10;96369.66;;;12.10;100.00
23303;BME280;11820;48.738;9.092;2023-05-13T07:21:37;96374.22;;;12.21;100.00
23303;BME280;11820;48.738;9.092;2023-05-13T07:24:02;96376.44;;;12.18;100.00
23303;BME280;11820;48.738;9.092;2023-05-13T07:26:29;96384.19;;;12.24;100.00
23303;BME280;11820;48.738;9.092;2023-05-13T07:28:55;96377.19;;;12.38;100.00
23303;BME280;11820;48.738;9.092;2023-05-13T07:31:22;96380.41;;;12.33;100.00
23303;BME280;11820;48.738;9.092;2023-05-13T07:33:47;96377.00;;;12.33;100.00
23303;BME280;11820;48.738;9.092;2023-05-13T07:36:12;96377.19;;;12.51;100.00
23303;BME280;11820;48.738;9.092;2023-05-13T07:38:38;96368.41;;;12.45;100.00
23303;BME280;11820;48.738;9.092;2023-05-13T07:41:03;96371.81;;;12.46;100.00
23303;BME280;11820;48.738;9.092;2023-05-13T07:43:28;96374.59;;;12.57;100.00
23303;BME280;11820;48.738;9.092;2023-05-13T07:45:54;96378.38;;;12.55;100.00
23303;BME280;11820;48.738;9.092;2023-05-13T07:48:19;96377.78;;;12.53;100.00
23303;BME280;11820;48.738;9.092;2023-05-13T07:50:45;96374.22;;;12.28;100.00
23303;BME280;11820;48.738;9.092;2023-05-13T07:53:10;96376.78;;;12.54;100.00
23303;BME280;11820;48.738;9.092;2023-05-13T07:55:36;96378.81;;;12.32;100.00
23303;BME280;11820;48.738;9.092;2023-05-13T07:58:01;96392.38;;;12.28;100.00
23303;BME280;11820;48.738;9.092;2023-05-13T08:00:26;96388.97;;;12.34;100.00
23303;BME280;11820;48.738;9.092;2023-05-13T08:02:52;96385.16;;;12.56;100.00
23303;BME280;11820;48.738;9.092;2023-05-13T08:05:17;96390.94;;;12.64;100.00
23303;BME280;11820;48.738;9.092;2023-05-13T08:07:42;96397.28;;;12.81;100.00
23303;BME280;11820;48.738;9.092;2023-05-13T08:10:08;96390.31;;;12.69;100.00
23303;BME280;11820;48.738;9.092;2023-05-13T08:12:33;96388.16;;;12.66;100.00
23303;BME280;11820;48.738;9.092;2023-05-13T08:14:59;96389.09;;;12.78;100.00
23303;BME280;11820;48.738;9.092;2023-05-13T08:17:25;96390.66;;;12.92;100.00
23303;BME280;11820;48.738;9.092;2023-05-13T08:19:50;96392.34;;;12.67;100.00
23303;BME280;11820;48.738;9.092;2023-05-13T08:22:15;96395.88;;;12.85;100.00
23303;BME280;11820;48.738;9.092;2023-05-13T08:24:41;96402.31;;;12.63;100.00
23303;BME280;11820;48.738;9.092;2023-05-13T08:27:07;96392.75;;;12.64;100.00
23303;BME280;11820;48.738;9.092;2023-05-13T08:29:32;96399.72;;;12.57;100.00
23303;BME280;11820;48.738;9.092;2023-05-13T08:31:57;96394.28;;;12.71;100.00
23303;BME280;11820;48.738;9.092;2023-05-13T08:34:23;96401.06;;;12.79;100.00
23303;BME280;11820;48.738;9.092;2023-05-13T08:36:48;96400.88;;;12.74;100.00
23303;BME280;11820;48.738;9.092;2023-05-13T08:39:13;96397.47;;;12.73;100.00
23303;BME280;11820;48.738;9.092;2023-05-13T08:41:40;96394.66;;;12.88;100.00
23303;BME280;11820;48.738;9.092;2023-05-13T08:44:08;96393.06;;;12.93;100.00
23303;BME280;11820;48.738;9.092;2023-05-13T08:46:36;96398.28;;;12.74;100.00
23303;BME280;11820;48.738;9.092;2023-05-13T08:49:02;96397.47;;;12.80;100.00
23303;BME280;11820;48.738;9.092;2023-05-13T08:51:29;96397.69;;;12.72;100.00
23303;BME280;11820;48.738;9.092;2023-05-13T08:53:55;96399.88;;;12.81;100.00
23303;BME280;11820;48.738;9.092;2023-05-13T08:56:20;96404.66;;;12.78;100.00
23303;BME280;11820;48.738;9.092;2023-05-13T08:58:49;96403.44;;;12.87;100.00
23303;BME280;11820;48.738;9.092;2023-05-13T09:01:15;96399.84;;;13.00;100.00
23303;BME280;11820;48.738;9.092;2023-05-13T09:03:51;96399.03;;;13.06;100.00
23303;BME280;11820;48.738;9.092;2023-05-13T09:06:18;96406.25;;;12.79;100.00
23303;BME280;11820;48.738;9.092;2023-05-13T09:08:43;96413.81;;;12.87;100.00
23303;BME280;11820;48.738;9.092;2023-05-13T09:11:08;96412.63;;;12.89;100.00
23303;BME280;11820;48.738;9.092;2023-05-13T09:13:34;96411.03;;;12.82;100.00
23303;BME280;11820;48.738;9.092;2023-05-13T09:16:00;96415.88;;;12.59;100.00
23303;BME280;11820;48.738;9.092;2023-05-13T09:18:29;96413.88;;;12.67;100.00
23303;BME280;11820;48.738;9.092;2023-05-13T09:21:21;96406.63;;;12.88;100.00
23303;BME280;11820;48.738;9.092;2023-05-13T09:23:47;96398.03;;;13.01;100.00
23303;BME280;11820;48.738;9.092;2023-05-13T09:26:26;96409.72;;;13.29;100.00
23303;BME280;11820;48.738;9.092;2023-05-13T09:31:45;96410.84;;;12.96;100.00
23303;BME280;11820;48.738;9.092;2023-05-13T09:34:11;96404.00;;;13.14;100.00
23303;BME280;11820;48.738;9.092;2023-05-13T09:36:37;96408.97;;;13.22;100.00
23303;BME280;11820;48.738;9.092;2023-05-13T09:39:03;96409.31;;;13.32;100.00
23303;BME280;11820;48.738;9.092;2023-05-13T09:41:30;96411.97;;;13.19;100.00
23303;BME280;11820;48.738;9.092;2023-05-13T09:43:56;96412.19;;;13.11;100.00
23303;BME280;11820;48.738;9.092;2023-05-13T09:46:22;96409.31;;;13.26;100.00
23303;BME280;11820;48.738;9.092;2023-05-13T09:48:48;96415.34;;;13.26;100.00
23303;BME280;11820;48.738;9.092;2023-05-13T09:51:24;96407.78;;;13.18;100.00
23303;BME280;11820;48.738;9.092;2023-05-13T09:53:51;96417.94;;;13.26;100.00
23303;BME280;11820;48.738;9.092;2023-05-13T09:56:18;96417.25;;;13.44;100.00
23303;BME280;11820;48.738;9.092;2023-05-13T09:58:50;96412.66;;;13.39;100.00
23303;BME280;11820;48.738;9.092;2023-05-13T10:01:16;96417.19;;;13.57;100.00
23303;BME280;11820;48.738;9.092;2023-05-13T10:03:42;96418.28;;;13.36;100.00
23303;BME280;11820;48.738;9.092;2023-05-13T10:06:08;96425.72;;;13.26;100.00
23303;BME280;11820;48.738;9.092;2023-05-13T10:08:34;96429.50;;;13.24;100.00
23303;BME280;11820;48.738;9.092;2023-05-13T10:11:00;96436.88;;;13.27;100.00
23303;BME280;11820;48.738;9.092;2023-05-13T10:13:27;96423.41;;;13.56;100.00
23303;BME280;11820;48.738;9.092;2023-05-13T10:15:54;96426.19;;;13.54;100.00
23303;BME280;11820;48.738;9.092;2023-05-13T10:18:21;96427.97;;;13.60;100.00
23303;BME280;11820;48.738;9.092;2023-05-13T10:20:47;96416.69;;;13.73;100.00
23303;BME280;11820;48.738;9.092;2023-05-13T10:23:17;96421.78;;;13.92;100.00
23303;BME280;11820;48.738;9.092;2023-05-13T10:25:43;96426.63;;;13.82;100.00
23303;BME280;11820;48.738;9.092;2023-05-13T10:28:09;96414.16;;;13.66;100.00
23303;BME280;11820;48.738;9.092;2023-05-13T10:30:34;96423.63;;;13.85;100.00
23303;BME280;11820;48.738;9.092;2023-05-13T10:33:01;96418.97;;;13.94;100.00
23303;BME280;11820;48.738;9.092;2023-05-13T10:35:31;96417.22;;;13.88;100.00
23303;BME280;11820;48.738;9.092;2023-05-13T10:38:00;96422.56;;;13.93;100.00
23303;BME280;11820;48.738;9.092;2023-05-13T10:41:25;96419.69;;;14.07;100.00
23303;BME280;11820;48.738;9.092;2023-05-13T10:43:56;96416.50;;;14.05;100.00
23303;BME280;11820;48.738;9.092;2023-05-13T10:46:22;96420.06;;;14.17;100.00
23303;BME280;11820;48.738;9.092;2023-05-13T10:48:56;96420.78;;;13.93;100.00
23303;BME280;11820;48.738;9.092;2023-05-13T10:51:23;96419.69;;;14.07;100.00
23303;BME280;11820;48.738;9.092;2023-05-13T10:53:51;96418.78;;;14.26;100.00
23303;BME280;11820;48.738;9.092;2023-05-13T10:56:21;96418.78;;;14.26;100.00
23303;BME280;11820;48.738;9.092;2023-05-13T10:59:04;96418.91;;;14.07;100.00
23303;BME280;11820;48.738;9.092;2023-05-13T11:01:32;96421.53;;;14.31;100.00
23303;BME280;11820;48.738;9.092;2023-05-13T11:04:01;96419.31;;;14.04;100.00
23303;BME280;11820;48.738;9.092;2023-05-13T11:08:59;96425.88;;;13.75;100.00
23303;BME280;11820;48.738;9.092;2023-05-13T11:11:29;96422.03;;;13.84;100.00
23303;BME280;11820;48.738;9.092;2023-05-13T11:14:19;96419.56;;;13.58;100.00
23303;BME280;11820;48.738;9.092;2023-05-13T11:16:47;96417.38;;;13.62;100.00
23303;BME280;11820;48.738;9.092;2023-05-13T11:19:21;96422.28;;;13.76;100.00
23303;BME280;11820;48.738;9.092;2023-05-13T11:21:49;96422.94;;;13.65;100.00
23303;BME280;11820;48.738;9.092;2023-05-13T11:24:17;96420.09;;;13.73;100.00
23303;BME280;11820;48.738;9.092;2023-05-13T11:26:54;96422.53;;;13.68;100.00
23303;BME280;11820;48.738;9.092;2023-05-13T11:29:35;96423.13;;;13.70;100.00
23303;BME280;11820;48.738;9.092;2023-05-13T11:32:04;96424.63;;;13.84;100.00
23303;BME280;11820;48.738;9.092;2023-05-13T11:34:32;96423.53;;;13.67;100.00
23303;BME280;11820;48.738;9.092;2023-05-13T11:39:28;96429.63;;;13.48;100.00
23303;BME280;11820;48.738;9.092;2023-05-13T11:41:54;96426.81;;;13.50;100.00
23303;BME280;11820;48.738;9.092;2023-05-13T11:44:23;96424.78;;;13.58;100.00
23303;BME280;11820;48.738;9.092;2023-05-13T11:46:56;96419.81;;;13.57;100.00
23303;BME280;11820;48.738;9.092;2023-05-13T11:49:37;96418.81;;;13.51;100.00
23303;BME280;11820;48.738;9.092;2023-05-13T11:52:10;96426.94;;;13.61;100.00
23303;BME280;11820;48.738;9.092;2023-05-13T11:59:52;96422.72;;;13.67;100.00
23303;BME280;11820;48.738;9.092;2023-05-13T12:02:22;96429.56;;;13.61;100.00
23303;BME280;11820;48.738;9.092;2023-05-13T12:04:49;96427.28;;;13.40;100.00
23303;BME280;11820;48.738;9.092;2023-05-13T12:07:21;96425.59;;;13.52;100.00
23303;BME280;11820;48.738;9.092;2023-05-13T12:09:48;96429.13;;;13.64;100.00
23303;BME280;11820;48.738;9.092;2023-05-13T12:12:14;96420.09;;;13.73;100.00
23303;BME280;11820;48.738;9.092;2023-05-13T12:14:42;96427.22;;;13.84;100.00
23303;BME280;11820;48.738;9.092;2023-05-13T12:17:07;96429.69;;;13.73;100.00
23303;BME280;11820;48.738;9.092;2023-05-13T12:19:33;96424.28;;;13.74;100.00
23303;BME280;11820;48.738;9.092;2023-05-13T12:21:58;96427.91;;;13.73;100.00
23303;BME280;11820;48.738;9.092;2023-05-13T12:24:24;96422.69;;;13.73;100.00
23303;BME280;11820;48.738;9.092;2023-05-13T12:26:49;96427.31;;;13.71;100.00
23303;BME280;11820;48.738;9.092;2023-05-13T12:29:15;96424.72;;;13.71;100.00
23303;BME280;11820;48.738;9.092;2023-05-13T12:31:41;96429.41;;;13.87;100.00
23303;BME280;11820;48.738;9.092;2023-05-13T12:34:07;96426.28;;;13.79;100.00
23303;BME280;11820;48.738;9.092;2023-05-13T12:36:36;96426.31;;;14.03;100.00
23303;BME280;11820;48.738;9.092;2023-05-13T12:41:30;96425.75;;;14.26;100.00
23303;BME280;11820;48.738;9.092;2023-05-13T12:44:00;96432.84;;;14.12;100.00
23303;BME280;11820;48.738;9.092;2023-05-13T12:46:26;96429.19;;;13.95;100.00
23303;BME280;11820;48.738;9.092;2023-05-13T12:48:58;96432.78;;;13.94;100.00
23303;BME280;11820;48.738;9.092;2023-05-13T12:51:25;96428.88;;;14.10;100.00
23303;BME280;11820;48.738;9.092;2023-05-13T12:53:51;96428.78;;;14.23;100.00
23303;BME280;11820;48.738;9.092;2023-05-13T12:56:19;96426.63;;;14.44;100.00
23303;BME280;11820;48.738;9.092;2023-05-13T12:58:45;96421.09;;;14.59;100.00
23303;BME280;11820;48.738;9.092;2023-05-13T13:01:10;96420.16;;;14.53;100.00
23303;BME280;11820;48.738;9.092;2023-05-13T13:03:36;96425.72;;;14.57;100.00
23303;BME280;11820;48.738;9.092;2023-05-13T13:06:01;96426.03;;;14.66;100.00
23303;BME280;11820;48.738;9.092;2023-05-13T13:08:26;96423.63;;;14.65;100.00
23303;BME280;11820;48.738;9.092;2023-05-13T13:10:52;96426.47;;;14.63;100.00